sensor_id;sensor_type;location;lat;lon;timestamp;P1;durP1;ratioP1;P2;durP2;ratioP2
52724;SDS011;38621;52.830;6.914;2022-10-17T00:02:17;3.67;;;2.17;;
52724;SDS011;38621;52.830;6.914;2022-10-17T00:04:43;3.60;;;2.50;;
52724;SDS011;38621;52.830;6.914;2022-10-17T00:07:08;4.80;;;2.20;;
52724;SDS011;38621;52.830;6.914;2022-10-17T00:09:34;4.88;;;2.38;;
52724;SDS011;38621;52.830;6.914;2022-10-17T00:12:00;4.13;;;2.60;;
52724;SDS011;38621;52.830;6.914;2022-10-17T00:14:26;4.50;;;2.42;;
52724;SDS011;38621;52.830;6.914;2022-10-17T00:16:52;4.80;;;2.72;;
52724;SDS011;38621;52.830;6.914;2022-10-17T00:19:18;3.70;;;2.60;;
52724;SDS011;38621;52.830;6.914;2022-10-17T00:21:43;4.82;;;2.47;;
52724;SDS011;38621;52.830;6.914;2022-10-17T00:24:09;3.88;;;2.63;;
52724;SDS011;38621;52.830;6.914;2022-10-17T00:26:35;5.20;;;2.72;;
52724;SDS011;38621;52.830;6.914;2022-10-17T00:29:00;3.78;;;2.67;;
52724;SDS011;38621;52.830;6.914;2022-10-17T00:31:26;4.63;;;2.70;;
52724;SDS011;38621;52.830;6.914;2022-10-17T00:33:52;4.07;;;2.45;;
52724;SDS011;38621;52.830;6.914;2022-10-17T00:36:19;3.50;;;2.53;;
52724;SDS011;38621;52.830;6.914;2022-10-17T00:38:47;4.30;;;2.55;;
52724;SDS011;38621;52.830;6.914;2022-10-17T00:41:16;6.07;;;3.15;;
52724;SDS011;38621;52.830;6.914;2022-10-17T00:43:57;3.45;;;2.58;;
52724;SDS011;38621;52.830;6.914;2022-10-17T00:46:26;4.22;;;2.70;;
52724;SDS011;38621;52.830;6.914;2022-10-17T00:48:55;3.58;;;2.60;;
52724;SDS011;38621;52.830;6.914;2022-10-17T00:54:20;4.28;;;2.50;;
52724;SDS011;38621;52.830;6.914;2022-10-17T00:56:49;4.68;;;2.65;;
52724;SDS011;38621;52.830;6.914;2022-10-17T00:59:15;3.65;;;2.80;;
52724;SDS011;38621;52.830;6.914;2022-10-17T01:01:46;3.45;;;2.42;;
52724;SDS011;38621;52.830;6.914;2022-10-17T01:04:20;6.30;;;2.63;;
52724;SDS011;38621;52.830;6.914;2022-10-17T01:06:46;3.05;;;2.50;;
52724;SDS011;38621;52.830;6.914;2022-10-17T01:09:11;4.15;;;2.63;;
52724;SDS011;38621;52.830;6.914;2022-10-17T01:17:00;5.38;;;3.05;;
52724;SDS011;38621;52.830;6.914;2022-10-17T01:22:32;3.95;;;3.03;;
52724;SDS011;38621;52.830;6.914;2022-10-17T01:27:51;3.97;;;2.75;;
52724;SDS011;38621;52.830;6.914;2022-10-17T01:33:36;3.40;;;2.60;;
52724;SDS011;38621;52.830;6.914;2022-10-17T01:36:16;3.75;;;2.53;;
52724;SDS011;38621;52.830;6.914;2022-10-17T01:39:09;4.25;;;2.80;;
52724;SDS011;38621;52.830;6.914;2022-10-17T01:44:39;3.28;;;2.67;;
52724;SDS011;38621;52.830;6.914;2022-10-17T01:47:13;3.65;;;2.85;;
52724;SDS011;38621;52.830;6.914;2022-10-17T01:49:43;4.80;;;3.20;;
52724;SDS011;38621;52.830;6.914;2022-10-17T01:52:14;4.78;;;2.88;;
52724;SDS011;38621;52.830;6.914;2022-10-17T01:54:54;4.65;;;3.00;;
52724;SDS011;38621;52.830;6.914;2022-10-17T01:57:47;4.82;;;3.10;;
52724;SDS011;38621;52.830;6.914;2022-10-17T02:00:17;3.50;;;2.60;;
52724;SDS011;38621;52.830;6.914;2022-10-17T02:02:47;3.53;;;2.80;;
52724;SDS011;38621;52.830;6.914;2022-10-17T02:05:16;4.38;;;2.60;;
52724;SDS011;38621;52.830;6.914;2022-10-17T02:07:45;5.07;;;3.00;;
52724;SDS011;38621;52.830;6.914;2022-10-17T02:10:35;4.30;;;2.95;;
52724;SDS011;38621;52.830;6.914;2022-10-17T02:12:59;4.17;;;2.80;;
52724;SDS011;38621;52.830;6.914;2022-10-17T02:15:55;4.53;;;2.70;;
52724;SDS011;38621;52.830;6.914;2022-10-17T02:18:46;3.38;;;2.80;;
52724;SDS011;38621;52.830;6.914;2022-10-17T02:24:15;4.93;;;2.83;;
52724;SDS011;38621;52.830;6.914;2022-10-17T02:29:21;4.28;;;3.20;;
52724;SDS011;38621;52.830;6.914;2022-10-17T02:31:58;3.85;;;3.03;;
52724;SDS011;38621;52.830;6.914;2022-10-17T02:34:32;6.60;;;3.33;;
52724;SDS011;38621;52.830;6.914;2022-10-17T02:37:03;5.22;;;3.33;;
52724;SDS011;38621;52.830;6.914;2022-10-17T02:39:30;3.83;;;3.20;;
52724;SDS011;38621;52.830;6.914;2022-10-17T02:41:59;5.75;;;3.33;;
52724;SDS011;38621;52.830;6.914;2022-10-17T02:44:28;4.43;;;3.55;;
52724;SDS011;38621;52.830;6.914;2022-10-17T02:46:58;5.70;;;2.97;;
52724;SDS011;38621;52.830;6.914;2022-10-17T02:49:42;5.70;;;3.30;;
52724;SDS011;38621;52.830;6.914;2022-10-17T02:52:15;5.80;;;3.55;;
52724;SDS011;38621;52.830;6.914;2022-10-17T02:54:53;3.88;;;3.30;;
52724;SDS011;38621;52.830;6.914;2022-10-17T03:00:11;4.55;;;3.53;;
52724;SDS011;38621;52.830;6.914;2022-10-17T03:02:40;5.55;;;3.47;;
52724;SDS011;38621;52.830;6.914;2022-10-17T03:05:27;5.80;;;3.67;;
52724;SDS011;38621;52.830;6.914;2022-10-17T03:07:54;3.67;;;3.28;;
52724;SDS011;38621;52.830;6.914;2022-10-17T03:10:20;5.70;;;3.33;;
52724;SDS011;38621;52.830;6.914;2022-10-17T03:12:46;5.07;;;4.00;;
52724;SDS011;38621;52.830;6.914;2022-10-17T03:15:13;4.20;;;3.30;;
52724;SDS011;38621;52.830;6.914;2022-10-17T03:17:39;6.38;;;3.78;;
52724;SDS011;38621;52.830;6.914;2022-10-17T03:20:05;6.13;;;3.92;;
52724;SDS011;38621;52.830;6.914;2022-10-17T03:22:31;4.50;;;3.60;;
52724;SDS011;38621;52.830;6.914;2022-10-17T03:24:57;5.47;;;4.00;;
52724;SDS011;38621;52.830;6.914;2022-10-17T03:27:23;4.80;;;3.70;;
52724;SDS011;38621;52.830;6.914;2022-10-17T03:29:49;4.38;;;3.55;;
52724;SDS011;38621;52.830;6.914;2022-10-17T03:32:15;4.95;;;3.60;;
52724;SDS011;38621;52.830;6.914;2022-10-17T03:34:41;4.88;;;3.80;;
52724;SDS011;38621;52.830;6.914;2022-10-17T03:37:06;6.03;;;4.00;;
52724;SDS011;38621;52.830;6.914;2022-10-17T03:39:32;5.15;;;3.72;;
52724;SDS011;38621;52.830;6.914;2022-10-17T03:41:58;4.72;;;3.85;;
52724;SDS011;38621;52.830;6.914;2022-10-17T03:44:23;4.72;;;4.00;;
52724;SDS011;38621;52.830;6.914;2022-10-17T03:46:49;5.63;;;4.35;;
52724;SDS011;38621;52.830;6.914;2022-10-17T03:49:14;4.90;;;4.15;;
52724;SDS011;38621;52.830;6.914;2022-10-17T03:51:40;5.90;;;4.15;;
52724;SDS011;38621;52.830;6.914;2022-10-17T03:54:06;6.15;;;4.57;;
52724;SDS011;38621;52.830;6.914;2022-10-17T03:56:31;5.53;;;4.30;;
52724;SDS011;38621;52.830;6.914;2022-10-17T03:58:57;4.78;;;4.28;;
52724;SDS011;38621;52.830;6.914;2022-10-17T04:01:23;5.78;;;4.22;;
52724;SDS011;38621;52.830;6.914;2022-10-17T04:03:49;6.80;;;4.50;;
52724;SDS011;38621;52.830;6.914;2022-10-17T04:06:16;6.55;;;4.65;;
52724;SDS011;38621;52.830;6.914;2022-10-17T04:08:42;6.07;;;4.63;;
52724;SDS011;38621;52.830;6.914;2022-10-17T04:11:09;9.52;;;4.88;;
52724;SDS011;38621;52.830;6.914;2022-10-17T04:13:37;6.68;;;5.07;;
52724;SDS011;38621;52.830;6.914;2022-10-17T04:16:07;7.35;;;4.82;;
52724;SDS011;38621;52.830;6.914;2022-10-17T04:18:38;6.10;;;4.88;;
52724;SDS011;38621;52.830;6.914;2022-10-17T04:21:04;7.78;;;5.50;;
52724;SDS011;38621;52.830;6.914;2022-10-17T04:23:31;6.82;;;5.25;;
52724;SDS011;38621;52.830;6.914;2022-10-17T04:25:57;7.78;;;5.13;;
52724;SDS011;38621;52.830;6.914;2022-10-17T04:28:24;7.90;;;6.07;;
52724;SDS011;38621;52.830;6.914;2022-10-17T04:30:57;7.85;;;5.50;;
52724;SDS011;38621;52.830;6.914;2022-10-17T04:33:24;7.53;;;5.40;;
52724;SDS011;38621;52.830;6.914;2022-10-17T04:35:54;7.50;;;5.80;;
52724;SDS011;38621;52.830;6.914;2022-10-17T04:38:23;8.55;;;6.05;;
52724;SDS011;38621;52.830;6.914;2022-10-17T04:40:49;8.93;;;6.55;;
52724;SDS011;38621;52.830;6.914;2022-10-17T04:43:14;8.13;;;6.15;;
52724;SDS011;38621;52.830;6.914;2022-10-17T04:45:40;9.20;;;5.53;;
52724;SDS011;38621;52.830;6.914;2022-10-17T04:48:06;8.60;;;5.97;;
52724;SDS011;38621;52.830;6.914;2022-10-17T04:50:31;7.88;;;6.10;;
52724;SDS011;38621;52.830;6.914;2022-10-17T04:52:57;7.70;;;5.57;;
52724;SDS011;38621;52.830;6.914;2022-10-17T04:55:23;7.60;;;6.05;;
52724;SDS011;38621;52.830;6.914;2022-10-17T04:57:49;8.02;;;6.07;;
52724;SDS011;38621;52.830;6.914;2022-10-17T05:00:15;9.05;;;5.65;;
52724;SDS011;38621;52.830;6.914;2022-10-17T05:02:40;7.88;;;6.18;;
52724;SDS011;38621;52.830;6.914;2022-10-17T05:05:06;6.75;;;5.80;;
52724;SDS011;38621;52.830;6.914;2022-10-17T05:07:32;9.00;;;6.30;;
52724;SDS011;38621;52.830;6.914;2022-10-17T05:09:58;8.05;;;6.28;;
52724;SDS011;38621;52.830;6.914;2022-10-17T05:12:24;7.22;;;5.93;;
52724;SDS011;38621;52.830;6.914;2022-10-17T05:14:49;7.95;;;6.20;;
52724;SDS011;38621;52.830;6.914;2022-10-17T05:17:15;9.02;;;6.28;;
52724;SDS011;38621;52.830;6.914;2022-10-17T05:19:41;8.65;;;6.30;;
52724;SDS011;38621;52.830;6.914;2022-10-17T05:22:07;8.27;;;6.00;;
52724;SDS011;38621;52.830;6.914;2022-10-17T05:24:32;7.85;;;5.95;;
52724;SDS011;38621;52.830;6.914;2022-10-17T05:26:58;8.40;;;6.05;;
52724;SDS011;38621;52.830;6.914;2022-10-17T05:29:24;8.00;;;6.72;;
52724;SDS011;38621;52.830;6.914;2022-10-17T05:31:50;9.35;;;6.32;;
52724;SDS011;38621;52.830;6.914;2022-10-17T05:34:15;7.97;;;6.53;;
52724;SDS011;38621;52.830;6.914;2022-10-17T05:36:41;9.07;;;6.85;;
52724;SDS011;38621;52.830;6.914;2022-10-17T05:39:06;9.60;;;6.78;;
52724;SDS011;38621;52.830;6.914;2022-10-17T05:41:33;7.68;;;6.18;;
52724;SDS011;38621;52.830;6.914;2022-10-17T05:43:59;8.32;;;6.90;;
52724;SDS011;38621;52.830;6.914;2022-10-17T05:46:24;8.90;;;6.50;;
52724;SDS011;38621;52.830;6.914;2022-10-17T05:48:50;8.63;;;6.93;;
52724;SDS011;38621;52.830;6.914;2022-10-17T05:51:16;9.85;;;6.95;;
52724;SDS011;38621;52.830;6.914;2022-10-17T05:53:42;9.90;;;7.10;;
52724;SDS011;38621;52.830;6.914;2022-10-17T05:56:09;9.27;;;7.05;;
52724;SDS011;38621;52.830;6.914;2022-10-17T05:58:38;9.45;;;7.07;;
52724;SDS011;38621;52.830;6.914;2022-10-17T06:01:05;8.80;;;7.00;;
52724;SDS011;38621;52.830;6.914;2022-10-17T06:03:31;8.52;;;6.47;;
52724;SDS011;38621;52.830;6.914;2022-10-17T06:06:07;11.90;;;7.75;;
52724;SDS011;38621;52.830;6.914;2022-10-17T06:08:35;7.72;;;6.68;;
52724;SDS011;38621;52.830;6.914;2022-10-17T06:11:01;10.77;;;6.93;;
52724;SDS011;38621;52.830;6.914;2022-10-17T06:13:27;10.43;;;7.13;;
52724;SDS011;38621;52.830;6.914;2022-10-17T06:15:53;8.75;;;6.65;;
52724;SDS011;38621;52.830;6.914;2022-10-17T06:18:19;9.90;;;6.60;;
52724;SDS011;38621;52.830;6.914;2022-10-17T06:20:45;8.98;;;6.57;;
52724;SDS011;38621;52.830;6.914;2022-10-17T06:23:11;10.43;;;6.88;;
52724;SDS011;38621;52.830;6.914;2022-10-17T06:25:37;9.05;;;6.82;;
52724;SDS011;38621;52.830;6.914;2022-10-17T06:28:02;9.35;;;6.70;;
52724;SDS011;38621;52.830;6.914;2022-10-17T06:30:28;7.85;;;6.35;;
52724;SDS011;38621;52.830;6.914;2022-10-17T06:32:54;10.18;;;6.78;;
52724;SDS011;38621;52.830;6.914;2022-10-17T06:35:20;8.57;;;6.85;;
52724;SDS011;38621;52.830;6.914;2022-10-17T06:37:46;8.48;;;6.43;;
52724;SDS011;38621;52.830;6.914;2022-10-17T06:40:12;7.70;;;6.18;;
52724;SDS011;38621;52.830;6.914;2022-10-17T06:42:39;8.73;;;6.55;;
52724;SDS011;38621;52.830;6.914;2022-10-17T06:45:05;7.93;;;5.90;;
52724;SDS011;38621;52.830;6.914;2022-10-17T06:47:32;8.00;;;6.07;;
52724;SDS011;38621;52.830;6.914;2022-10-17T06:49:58;8.88;;;6.43;;
52724;SDS011;38621;52.830;6.914;2022-10-17T06:52:24;8.45;;;6.95;;
52724;SDS011;38621;52.830;6.914;2022-10-17T06:54:50;8.20;;;5.57;;
52724;SDS011;38621;52.830;6.914;2022-10-17T06:57:18;8.20;;;6.90;;
52724;SDS011;38621;52.830;6.914;2022-10-17T06:59:44;8.88;;;5.95;;
52724;SDS011;38621;52.830;6.914;2022-10-17T07:02:10;8.13;;;6.10;;
52724;SDS011;38621;52.830;6.914;2022-10-17T07:04:36;7.32;;;5.80;;
52724;SDS011;38621;52.830;6.914;2022-10-17T07:07:01;6.65;;;5.68;;
52724;SDS011;38621;52.830;6.914;2022-10-17T07:09:30;8.02;;;6.00;;
52724;SDS011;38621;52.830;6.914;2022-10-17T07:11:57;7.93;;;6.30;;
52724;SDS011;38621;52.830;6.914;2022-10-17T07:14:23;7.72;;;5.50;;
52724;SDS011;38621;52.830;6.914;2022-10-17T07:16:56;6.63;;;5.53;;
52724;SDS011;38621;52.830;6.914;2022-10-17T07:19:22;9.85;;;6.00;;
52724;SDS011;38621;52.830;6.914;2022-10-17T07:21:48;8.20;;;5.80;;
52724;SDS011;38621;52.830;6.914;2022-10-17T07:24:14;8.65;;;5.57;;
52724;SDS011;38621;52.830;6.914;2022-10-17T07:26:40;8.00;;;5.78;;
52724;SDS011;38621;52.830;6.914;2022-10-17T07:29:05;8.48;;;5.90;;
52724;SDS011;38621;52.830;6.914;2022-10-17T07:31:31;8.35;;;5.93;;
52724;SDS011;38621;52.830;6.914;2022-10-17T07:34:00;7.82;;;5.93;;
52724;SDS011;38621;52.830;6.914;2022-10-17T07:36:26;10.30;;;5.65;;
52724;SDS011;38621;52.830;6.914;2022-10-17T07:38:51;7.93;;;5.72;;
52724;SDS011;38621;52.830;6.914;2022-10-17T07:41:17;6.80;;;5.38;;
52724;SDS011;38621;52.830;6.914;2022-10-17T07:43:43;8.65;;;5.88;;
52724;SDS011;38621;52.830;6.914;2022-10-17T07:46:09;8.68;;;5.40;;
52724;SDS011;38621;52.830;6.914;2022-10-17T07:48:36;5.75;;;4.95;;
52724;SDS011;38621;52.830;6.914;2022-10-17T07:51:03;6.63;;;5.43;;
52724;SDS011;38621;52.830;6.914;2022-10-17T07:53:31;8.15;;;4.47;;
52724;SDS011;38621;52.830;6.914;2022-10-17T07:56:06;6.95;;;4.82;;
52724;SDS011;38621;52.830;6.914;2022-10-17T07:58:32;6.95;;;5.05;;
52724;SDS011;38621;52.830;6.914;2022-10-17T08:00:59;6.50;;;4.32;;
52724;SDS011;38621;52.830;6.914;2022-10-17T08:03:26;5.32;;;4.53;;
52724;SDS011;38621;52.830;6.914;2022-10-17T08:05:55;5.78;;;4.80;;
52724;SDS011;38621;52.830;6.914;2022-10-17T08:08:22;5.30;;;4.18;;
52724;SDS011;38621;52.830;6.914;2022-10-17T08:10:47;4.80;;;3.90;;
52724;SDS011;38621;52.830;6.914;2022-10-17T08:13:13;6.32;;;3.95;;
52724;SDS011;38621;52.830;6.914;2022-10-17T08:15:38;5.75;;;4.15;;
52724;SDS011;38621;52.830;6.914;2022-10-17T08:18:04;5.57;;;4.20;;
52724;SDS011;38621;52.830;6.914;2022-10-17T08:20:30;6.18;;;4.18;;
52724;SDS011;38621;52.830;6.914;2022-10-17T08:22:56;4.95;;;4.00;;
52724;SDS011;38621;52.830;6.914;2022-10-17T08:25:21;6.15;;;4.10;;
52724;SDS011;38621;52.830;6.914;2022-10-17T08:27:47;6.00;;;4.35;;
52724;SDS011;38621;52.830;6.914;2022-10-17T08:30:13;5.35;;;3.90;;
52724;SDS011;38621;52.830;6.914;2022-10-17T08:32:40;5.82;;;4.30;;
52724;SDS011;38621;52.830;6.914;2022-10-17T08:35:06;6.25;;;4.30;;
52724;SDS011;38621;52.830;6.914;2022-10-17T08:37:32;6.00;;;4.20;;
52724;SDS011;38621;52.830;6.914;2022-10-17T08:39:58;6.55;;;4.40;;
52724;SDS011;38621;52.830;6.914;2022-10-17T08:45:17;6.50;;;4.40;;
52724;SDS011;38621;52.830;6.914;2022-10-17T08:47:52;6.68;;;4.10;;
52724;SDS011;38621;52.830;6.914;2022-10-17T08:53:21;4.72;;;4.05;;
52724;SDS011;38621;52.830;6.914;2022-10-17T08:56:06;5.57;;;4.20;;
52724;SDS011;38621;52.830;6.914;2022-10-17T08:58:45;6.10;;;4.05;;
52724;SDS011;38621;52.830;6.914;2022-10-17T09:01:30;5.68;;;4.10;;
52724;SDS011;38621;52.830;6.914;2022-10-17T09:06:33;5.93;;;4.00;;
52724;SDS011;38621;52.830;6.914;2022-10-17T09:09:09;6.03;;;4.03;;
52724;SDS011;38621;52.830;6.914;2022-10-17T09:11:47;6.45;;;3.95;;
52724;SDS011;38621;52.830;6.914;2022-10-17T09:17:53;5.72;;;4.30;;
52724;SDS011;38621;52.830;6.914;2022-10-17T09:20:44;6.13;;;4.27;;
52724;SDS011;38621;52.830;6.914;2022-10-17T09:23:16;9.65;;;4.68;;
52724;SDS011;38621;52.830;6.914;2022-10-17T09:25:55;7.38;;;4.65;;
52724;SDS011;38621;52.830;6.914;2022-10-17T09:28:36;5.75;;;4.20;;
52724;SDS011;38621;52.830;6.914;2022-10-17T09:35:57;6.75;;;5.10;;
52724;SDS011;38621;52.830;6.914;2022-10-17T09:38:24;6.10;;;4.30;;
52724;SDS011;38621;52.830;6.914;2022-10-17T09:40:55;6.68;;;4.00;;
52724;SDS011;38621;52.830;6.914;2022-10-17T09:43:22;5.53;;;4.00;;
52724;SDS011;38621;52.830;6.914;2022-10-17T09:46:01;6.18;;;5.00;;
52724;SDS011;38621;52.830;6.914;2022-10-17T09:48:49;6.57;;;4.55;;
52724;SDS011;38621;52.830;6.914;2022-10-17T09:51:19;5.72;;;4.03;;
52724;SDS011;38621;52.830;6.914;2022-10-17T09:53:48;7.13;;;4.07;;
52724;SDS011;38621;52.830;6.914;2022-10-17T09:56:20;6.50;;;4.40;;
52724;SDS011;38621;52.830;6.914;2022-10-17T09:58:56;7.90;;;5.18;;
52724;SDS011;38621;52.830;6.914;2022-10-17T10:01:26;5.18;;;4.13;;
52724;SDS011;38621;52.830;6.914;2022-10-17T10:07:01;5.63;;;4.60;;
52724;SDS011;38621;52.830;6.914;2022-10-17T10:09:29;7.38;;;4.55;;
52724;SDS011;38621;52.830;6.914;2022-10-17T10:11:56;5.95;;;4.72;;
52724;SDS011;38621;52.830;6.914;2022-10-17T10:14:29;7.05;;;4.60;;
52724;SDS011;38621;52.830;6.914;2022-10-17T10:17:00;6.78;;;4.93;;
52724;SDS011;38621;52.830;6.914;2022-10-17T10:21:57;7.93;;;5.47;;
52724;SDS011;38621;52.830;6.914;2022-10-17T10:24:28;6.32;;;5.45;;
52724;SDS011;38621;52.830;6.914;2022-10-17T10:26:55;6.60;;;5.30;;
52724;SDS011;38621;52.830;6.914;2022-10-17T10:32:24;6.68;;;5.35;;
52724;SDS011;38621;52.830;6.914;2022-10-17T10:35:04;7.47;;;5.50;;
52724;SDS011;38621;52.830;6.914;2022-10-17T10:37:37;8.02;;;6.20;;
52724;SDS011;38621;52.830;6.914;2022-10-17T10:40:14;7.13;;;6.15;;
52724;SDS011;38621;52.830;6.914;2022-10-17T10:42:59;7.82;;;6.05;;
52724;SDS011;38621;52.830;6.914;2022-10-17T10:50:58;7.55;;;6.40;;
52724;SDS011;38621;52.830;6.914;2022-10-17T10:53:47;8.13;;;6.25;;
52724;SDS011;38621;52.830;6.914;2022-10-17T10:58:50;8.65;;;6.10;;
52724;SDS011;38621;52.830;6.914;2022-10-17T11:06:31;9.20;;;6.60;;
52724;SDS011;38621;52.830;6.914;2022-10-17T11:12:00;8.55;;;6.15;;
52724;SDS011;38621;52.830;6.914;2022-10-17T11:20:19;8.02;;;5.78;;
52724;SDS011;38621;52.830;6.914;2022-10-17T11:22:47;7.13;;;5.43;;
52724;SDS011;38621;52.830;6.914;2022-10-17T11:25:35;7.85;;;5.80;;
52724;SDS011;38621;52.830;6.914;2022-10-17T11:30:39;9.25;;;6.55;;
52724;SDS011;38621;52.830;6.914;2022-10-17T11:33:10;8.90;;;6.50;;
52724;SDS011;38621;52.830;6.914;2022-10-17T11:35:56;7.68;;;6.35;;
52724;SDS011;38621;52.830;6.914;2022-10-17T11:41:33;9.27;;;6.15;;
52724;SDS011;38621;52.830;6.914;2022-10-17T11:46:47;8.77;;;6.50;;
52724;SDS011;38621;52.830;6.914;2022-10-17T11:49:44;8.57;;;6.63;;
52724;SDS011;38621;52.830;6.914;2022-10-17T11:55:12;8.20;;;5.90;;
52724;SDS011;38621;52.830;6.914;2022-10-17T12:06:36;8.18;;;5.28;;
52724;SDS011;38621;52.830;6.914;2022-10-17T12:12:00;6.05;;;5.00;;
52724;SDS011;38621;52.830;6.914;2022-10-17T12:17:20;6.05;;;4.60;;
52724;SDS011;38621;52.830;6.914;2022-10-17T12:20:15;5.85;;;4.50;;
52724;SDS011;38621;52.830;6.914;2022-10-17T12:22:59;6.15;;;4.03;;
52724;SDS011;38621;52.830;6.914;2022-10-17T12:25:30;5.40;;;4.22;;
52724;SDS011;38621;52.830;6.914;2022-10-17T12:33:30;5.47;;;3.95;;
52724;SDS011;38621;52.830;6.914;2022-10-17T12:38:43;4.93;;;3.95;;
52724;SDS011;38621;52.830;6.914;2022-10-17T12:41:11;6.55;;;4.10;;
52724;SDS011;38621;52.830;6.914;2022-10-17T12:43:43;5.57;;;4.15;;
52724;SDS011;38621;52.830;6.914;2022-10-17T12:46:11;5.85;;;4.03;;
52724;SDS011;38621;52.830;6.914;2022-10-17T12:53:35;4.72;;;3.78;;
52724;SDS011;38621;52.830;6.914;2022-10-17T12:56:39;4.85;;;3.63;;
52724;SDS011;38621;52.830;6.914;2022-10-17T12:59:19;5.15;;;3.70;;
52724;SDS011;38621;52.830;6.914;2022-10-17T13:01:50;5.97;;;3.58;;
52724;SDS011;38621;52.830;6.914;2022-10-17T13:04:19;4.97;;;3.60;;
52724;SDS011;38621;52.830;6.914;2022-10-17T13:06:47;5.25;;;3.53;;
52724;SDS011;38621;52.830;6.914;2022-10-17T13:11:48;4.38;;;3.42;;
52724;SDS011;38621;52.830;6.914;2022-10-17T13:14:16;4.63;;;3.42;;
52724;SDS011;38621;52.830;6.914;2022-10-17T13:16:54;4.82;;;2.95;;
52724;SDS011;38621;52.830;6.914;2022-10-17T13:19:25;4.60;;;3.50;;
52724;SDS011;38621;52.830;6.914;2022-10-17T13:21:56;3.83;;;3.38;;
52724;SDS011;38621;52.830;6.914;2022-10-17T13:24:30;4.18;;;3.53;;
52724;SDS011;38621;52.830;6.914;2022-10-17T13:27:01;4.40;;;3.50;;
52724;SDS011;38621;52.830;6.914;2022-10-17T13:29:29;4.50;;;3.70;;
52724;SDS011;38621;52.830;6.914;2022-10-17T13:32:00;4.50;;;3.67;;
52724;SDS011;38621;52.830;6.914;2022-10-17T13:34:28;4.47;;;3.65;;
52724;SDS011;38621;52.830;6.914;2022-10-17T13:36:55;4.10;;;3.33;;
52724;SDS011;38621;52.830;6.914;2022-10-17T13:39:27;5.00;;;3.65;;
52724;SDS011;38621;52.830;6.914;2022-10-17T13:41:57;4.25;;;3.42;;
52724;SDS011;38621;52.830;6.914;2022-10-17T13:44:24;4.53;;;3.13;;
52724;SDS011;38621;52.830;6.914;2022-10-17T13:46:52;5.20;;;3.78;;
52724;SDS011;38621;52.830;6.914;2022-10-17T13:50:00;4.68;;;3.40;;
52724;SDS011;38621;52.830;6.914;2022-10-17T13:52:18;4.80;;;3.33;;
52724;SDS011;38621;52.830;6.914;2022-10-17T13:54:47;3.92;;;3.10;;
52724;SDS011;38621;52.830;6.914;2022-10-17T14:02:21;5.03;;;3.33;;
52724;SDS011;38621;52.830;6.914;2022-10-17T14:05:02;5.47;;;3.15;;
52724;SDS011;38621;52.830;6.914;2022-10-17T14:07:41;3.92;;;3.20;;
52724;SDS011;38621;52.830;6.914;2022-10-17T14:10:18;5.43;;;3.90;;
52724;SDS011;38621;52.830;6.914;2022-10-17T14:12:52;4.40;;;3.22;;
52724;SDS011;38621;52.830;6.914;2022-10-17T14:15:18;4.13;;;3.13;;
52724;SDS011;38621;52.830;6.914;2022-10-17T14:17:52;4.53;;;3.63;;
52724;SDS011;38621;52.830;6.914;2022-10-17T14:20:23;6.03;;;3.92;;
52724;SDS011;38621;52.830;6.914;2022-10-17T14:22:52;4.72;;;2.80;;
52724;SDS011;38621;52.830;6.914;2022-10-17T14:25:34;3.00;;;2.05;;
52724;SDS011;38621;52.830;6.914;2022-10-17T14:28:12;3.30;;;1.45;;
52724;SDS011;38621;52.830;6.914;2022-10-17T14:30:43;2.00;;;1.50;;
52724;SDS011;38621;52.830;6.914;2022-10-17T14:33:14;3.03;;;1.42;;
52724;SDS011;38621;52.830;6.914;2022-10-17T14:35:50;4.00;;;1.60;;
52724;SDS011;38621;52.830;6.914;2022-10-17T14:38:17;2.30;;;1.33;;
52724;SDS011;38621;52.830;6.914;2022-10-17T14:40:51;3.15;;;1.60;;
52724;SDS011;38621;52.830;6.914;2022-10-17T14:43:22;2.80;;;1.60;;
52724;SDS011;38621;52.830;6.914;2022-10-17T14:45:50;2.30;;;1.30;;
52724;SDS011;38621;52.830;6.914;2022-10-17T14:48:17;3.67;;;1.63;;
52724;SDS011;38621;52.830;6.914;2022-10-17T14:53:33;2.35;;;1.30;;
52724;SDS011;38621;52.830;6.914;2022-10-17T14:56:00;2.10;;;1.20;;
52724;SDS011;38621;52.830;6.914;2022-10-17T14:58:31;1.70;;;1.00;;
52724;SDS011;38621;52.830;6.914;2022-10-17T15:00:58;2.90;;;1.10;;
52724;SDS011;38621;52.830;6.914;2022-10-17T15:03:26;3.70;;;1.17;;
52724;SDS011;38621;52.830;6.914;2022-10-17T15:05:52;1.73;;;1.02;;
52724;SDS011;38621;52.830;6.914;2022-10-17T15:08:20;2.45;;;1.20;;
52724;SDS011;38621;52.830;6.914;2022-10-17T15:10:48;2.47;;;1.00;;
52724;SDS011;38621;52.830;6.914;2022-10-17T15:13:15;2.65;;;1.50;;
52724;SDS011;38621;52.830;6.914;2022-10-17T15:15:41;1.95;;;1.05;;
52724;SDS011;38621;52.830;6.914;2022-10-17T15:18:09;2.05;;;1.20;;
52724;SDS011;38621;52.830;6.914;2022-10-17T15:20:36;1.63;;;1.00;;
52724;SDS011;38621;52.830;6.914;2022-10-17T15:23:03;2.88;;;1.50;;
52724;SDS011;38621;52.830;6.914;2022-10-17T15:25:29;3.22;;;1.60;;
52724;SDS011;38621;52.830;6.914;2022-10-17T15:27:55;2.05;;;1.42;;
52724;SDS011;38621;52.830;6.914;2022-10-17T15:30:23;2.22;;;1.23;;
52724;SDS011;38621;52.830;6.914;2022-10-17T15:32:49;3.88;;;1.40;;
52724;SDS011;38621;52.830;6.914;2022-10-17T15:35:16;2.47;;;1.17;;
52724;SDS011;38621;52.830;6.914;2022-10-17T15:37:42;2.33;;;1.35;;
52724;SDS011;38621;52.830;6.914;2022-10-17T15:40:20;2.05;;;1.20;;
52724;SDS011;38621;52.830;6.914;2022-10-17T15:42:52;2.55;;;1.05;;
52724;SDS011;38621;52.830;6.914;2022-10-17T15:45:18;1.98;;;1.10;;
52724;SDS011;38621;52.830;6.914;2022-10-17T15:48:05;2.60;;;1.17;;
52724;SDS011;38621;52.830;6.914;2022-10-17T15:50:31;2.60;;;0.93;;
52724;SDS011;38621;52.830;6.914;2022-10-17T15:52:57;3.20;;;1.50;;
52724;SDS011;38621;52.830;6.914;2022-10-17T15:55:24;4.05;;;1.30;;
52724;SDS011;38621;52.830;6.914;2022-10-17T15:57:49;2.03;;;1.10;;
52724;SDS011;38621;52.830;6.914;2022-10-17T16:00:19;2.88;;;1.15;;
52724;SDS011;38621;52.830;6.914;2022-10-17T16:02:46;1.95;;;1.20;;
52724;SDS011;38621;52.830;6.914;2022-10-17T16:05:18;2.85;;;1.13;;
52724;SDS011;38621;52.830;6.914;2022-10-17T16:10:15;4.03;;;1.33;;
52724;SDS011;38621;52.830;6.914;2022-10-17T16:12:42;2.13;;;1.20;;
52724;SDS011;38621;52.830;6.914;2022-10-17T16:15:28;2.65;;;1.40;;
52724;SDS011;38621;52.830;6.914;2022-10-17T16:17:54;2.97;;;1.35;;
52724;SDS011;38621;52.830;6.914;2022-10-17T16:20:21;3.65;;;1.40;;
52724;SDS011;38621;52.830;6.914;2022-10-17T16:22:49;3.53;;;1.85;;
52724;SDS011;38621;52.830;6.914;2022-10-17T16:25:20;2.30;;;1.60;;
52724;SDS011;38621;52.830;6.914;2022-10-17T16:27:48;2.35;;;1.50;;
52724;SDS011;38621;52.830;6.914;2022-10-17T16:30:15;2.22;;;1.65;;
52724;SDS011;38621;52.830;6.914;2022-10-17T16:32:41;2.42;;;1.75;;
52724;SDS011;38621;52.830;6.914;2022-10-17T16:35:07;2.47;;;1.73;;
52724;SDS011;38621;52.830;6.914;2022-10-17T16:37:35;2.17;;;1.50;;
52724;SDS011;38621;52.830;6.914;2022-10-17T16:40:01;3.38;;;1.85;;
52724;SDS011;38621;52.830;6.914;2022-10-17T16:42:28;3.08;;;2.17;;
52724;SDS011;38621;52.830;6.914;2022-10-17T16:44:54;4.28;;;1.90;;
52724;SDS011;38621;52.830;6.914;2022-10-17T16:47:19;2.42;;;1.70;;
52724;SDS011;38621;52.830;6.914;2022-10-17T16:49:45;3.28;;;2.03;;
52724;SDS011;38621;52.830;6.914;2022-10-17T16:52:11;2.20;;;1.60;;
52724;SDS011;38621;52.830;6.914;2022-10-17T16:54:37;2.67;;;1.77;;
52724;SDS011;38621;52.830;6.914;2022-10-17T16:57:02;2.92;;;2.08;;
52724;SDS011;38621;52.830;6.914;2022-10-17T16:59:28;3.50;;;2.00;;
52724;SDS011;38621;52.830;6.914;2022-10-17T17:01:54;3.10;;;2.33;;
52724;SDS011;38621;52.830;6.914;2022-10-17T17:04:20;2.97;;;2.20;;
52724;SDS011;38621;52.830;6.914;2022-10-17T17:06:46;3.17;;;2.33;;
52724;SDS011;38621;52.830;6.914;2022-10-17T17:09:12;3.35;;;2.30;;
52724;SDS011;38621;52.830;6.914;2022-10-17T17:11:38;3.50;;;2.40;;